CheckWX is a tool to help pilots better visualize weather data.  It is not intended as a substitute for an official pre-flight weather briefing.

07:14:05 UTC

KLGB TAF
Long Beach / Daugherty Field / Airport
Long Beach, California, USA
KLGB 180610Z 1806/1906 VRB03KT P6SM OVC018 FM181100 VRB03KT P6SM OVC012 FM181600 17006KT P6SM OVC018 FM182100 20008KT P6SM SCT025 FM190400 VRB03KT P6SM OVC025

Jun-18@
06:00 UTC

Jun-18 @ 06:00 UTC

Jun-18@
11:00 UTC

Jun-18 @ 11:00 UTC

KLGB 180610Z 1806/1906 VRB03KT P6SM OVC018
Wind
  • Variable at 3 KTS
Cloud Levels
  • Overcast at 1,800' AGL

Jun-18@
11:00 UTC

Jun-18 @ 11:00 UTC

Jun-18@
16:00 UTC

Jun-18 @ 16:00 UTC

FM181100 VRB03KT P6SM OVC012

From

From Standard forecast or significant change

Wind
  • Variable at 3 KTS
Cloud Levels
  • Overcast at 1,200' AGL

Jun-18@
16:00 UTC

Jun-18 @ 16:00 UTC

Jun-18@
21:00 UTC

Jun-18 @ 21:00 UTC

FM181600 17006KT P6SM OVC018

From

From Standard forecast or significant change

Wind
  • 170° at 6 KTS
Cloud Levels
  • Overcast at 1,800' AGL

Jun-18@
21:00 UTC

Jun-18 @ 21:00 UTC

Jun-19@
04:00 UTC

Jun-19 @ 04:00 UTC

FM182100 20008KT P6SM SCT025

From

From Standard forecast or significant change

Wind
  • 200° at 8 KTS
Cloud Levels
  • Scattered at 2,500' AGL

Jun-19@
04:00 UTC

Jun-19 @ 04:00 UTC

Jun-19@
06:00 UTC

Jun-19 @ 06:00 UTC

FM190400 VRB03KT P6SM OVC025

From

From Standard forecast or significant change

Wind
  • Variable at 3 KTS
Cloud Levels
  • Overcast at 2,500' AGL